Time;durP1;ratioP1;P1;durP2;ratioP2;P2;SDS_P1;SDS_P2;PMS_P1;PMS_P2;Temp;Humidity;BMP_temperature;BMP_pressure;BME280_temperature;BME280_humidity;BME280_pressure;Samples;Min_cycle;Max_cycle;Signal;HPM_P1;HPM_P2
2022/01/17 00:05:29;;;;;;;11.1;16.7;;;;;;;2.4;75.3;98940;;;;
2022/01/17 00:15:40;;;;;;;11.1;16.7;;;;;;;2.3;75.8;98920;;;;
2022/01/17 00:26:29;;;;;;;10.1;12.9;;;;;;;2.4;76;98920;;;;
2022/01/17 00:37:29;;;;;;;10.1;12.9;;;;;;;2.4;76.1;98890;;;;
2022/01/17 00:48:29;;;;;;;9.1;13.1;;;;;;;2.4;76.6;98900;;;;
2022/01/17 00:58:29;;;;;;;9.1;13.1;;;;;;;2.4;77.1;98900;;;;
2022/01/17 01:08:29;;;;;;;9.1;13.1;;;;;;;2.3;78.2;98880;;;;
2022/01/17 01:19:39;;;;;;;8.2;10.4;;;;;;;2.3;78.5;98870;;;;
2022/01/17 01:30:30;;;;;;;8.2;10.4;;;;;;;2.4;78.4;98850;;;;
2022/01/17 01:40:29;;;;;;;8.2;10.4;;;;;;;2.4;77.9;98820;;;;
2022/01/17 01:50:29;;;;;;;7.6;10.3;;;;;;;2.5;77.6;98820;;;;
2022/01/17 02:01:29;;;;;;;7.6;10.3;;;;;;;2.7;76.6;98790;;;;
2022/01/17 02:11:29;;;;;;;7.6;10.3;;;;;;;2.8;75.5;98770;;;;
2022/01/17 02:21:34;;;;;;;6.4;8.8;;;;;;;2.9;74.9;98730;;;;
2022/01/17 02:31:29;;;;;;;6.4;8.8;;;;;;;3;73.8;98730;;;;
2022/01/17 02:42:29;;;;;;;6.4;8.8;;;;;;;3.1;73;98700;;;;
2022/01/17 02:52:29;;;;;;;4.6;6.2;;;;;;;3.1;72.3;98690;;;;
2022/01/17 03:03:29;;;;;;;4.6;6.2;;;;;;;3.2;71.1;98680;;;;
2022/01/17 03:13:31;;;;;;;4.6;6.2;;;;;;;3.4;69.6;98680;;;;
2022/01/17 03:23:29;;;;;;;4.5;7;;;;;;;3.6;68.8;98660;;;;
2022/01/17 03:34:29;;;;;;;4.5;7;;;;;;;3.7;68.3;98660;;;;
2022/01/17 03:45:29;;;;;;;4.5;7;;;;;;;3.5;69.6;98660;;;;
2022/01/17 03:55:32;;;;;;;4.2;6.3;;;;;;;3.8;67.3;98640;;;;
2022/01/17 04:05:29;;;;;;;4.2;6.3;;;;;;;3.8;67.6;98620;;;;
2022/01/17 04:16:29;;;;;;;4.2;6.3;;;;;;;3.7;69.3;98640;;;;
2022/01/17 04:27:29;;;;;;;5;8.3;;;;;;;3.4;71.8;98640;;;;
2022/01/17 04:38:29;;;;;;;5;8.3;;;;;;;3.2;73.4;98650;;;;
2022/01/17 04:49:29;;;;;;;9.6;12.5;;;;;;;3;75;98640;;;;
2022/01/17 04:59:29;;;;;;;9.6;12.5;;;;;;;3.1;74.6;98620;;;;
2022/01/17 05:10:29;;;;;;;9.6;12.5;;;;;;;3;74.4;98620;;;;
2022/01/17 05:21:30;;;;;;;9.7;14.6;;;;;;;3.2;73.4;98600;;;;
2022/01/17 05:31:29;;;;;;;9.7;14.6;;;;;;;3.4;71.7;98570;;;;
2022/01/17 05:42:30;;;;;;;9.7;14.6;;;;;;;3.6;70.9;98540;;;;
2022/01/17 05:52:29;;;;;;;8.6;10.5;;;;;;;3.7;70.2;98540;;;;
2022/01/17 06:03:29;;;;;;;8.6;10.5;;;;;;;3.7;70.5;98530;;;;
2022/01/17 06:14:30;;;;;;;8.6;10.5;;;;;;;3.8;69.7;98510;;;;
2022/01/17 06:24:29;;;;;;;7.8;11.5;;;;;;;3.9;69;98520;;;;
2022/01/17 06:34:29;;;;;;;7.8;11.5;;;;;;;4;68.5;98480;;;;
2022/01/17 06:44:29;;;;;;;7.8;11.5;;;;;;;4;69;98450;;;;
2022/01/17 06:55:29;;;;;;;6.4;8.1;;;;;;;4.1;68.8;98450;;;;
2022/01/17 07:06:29;;;;;;;6.4;8.1;;;;;;;4.2;69.1;98410;;;;
2022/01/17 07:17:29;;;;;;;6.5;8.8;;;;;;;4;71.4;98430;;;;
2022/01/17 07:27:29;;;;;;;6.5;8.8;;;;;;;3.8;73.6;98480;;;;
2022/01/17 07:38:29;;;;;;;6.5;8.8;;;;;;;3.4;76.4;98460;;;;
2022/01/17 07:48:58;;;;;;;7.3;10.5;;;;;;;3;78.8;98400;;;;
2022/01/17 07:59:29;;;;;;;7.3;10.5;;;;;;;3;79.3;98350;;;;
2022/01/17 08:09:29;;;;;;;7.3;10.5;;;;;;;3;79.2;98310;;;;
2022/01/17 08:20:30;;;;;;;7.7;10.5;;;;;;;3.2;78;98280;;;;
2022/01/17 08:30:31;;;;;;;7.7;10.5;;;;;;;3.5;76.3;98280;;;;
2022/01/17 08:41:29;;;;;;;7.7;10.5;;;;;;;3.8;73.8;98280;;;;
2022/01/17 08:51:29;;;;;;;8.3;10;;;;;;;3.7;75.1;98230;;;;
2022/01/17 09:02:29;;;;;;;8.3;10;;;;;;;4.1;71.7;98190;;;;
2022/01/17 09:13:30;;;;;;;8.3;10;;;;;;;4.4;70.5;98150;;;;
2022/01/17 09:23:29;;;;;;;4.5;6.6;;;;;;;4.4;71.3;98140;;;;
2022/01/17 09:33:29;;;;;;;4.5;6.6;;;;;;;4.3;73.5;98170;;;;
2022/01/17 09:44:29;;;;;;;4.5;6.6;;;;;;;4;75.3;98110;;;;
2022/01/17 09:55:29;;;;;;;4.7;8.2;;;;;;;3.6;78;98100;;;;
2022/01/17 10:06:29;;;;;;;4.7;8.2;;;;;;;3.4;79.4;98080;;;;
2022/01/17 10:16:31;;;;;;;6.1;8.8;;;;;;;3.5;79.2;98050;;;;
2022/01/17 10:26:52;;;;;;;6.1;8.8;;;;;;;3.6;79;98030;;;;
2022/01/17 10:37:29;;;;;;;6.1;8.8;;;;;;;3.7;78.3;98000;;;;
2022/01/17 10:48:29;;;;;;;6.3;8.3;;;;;;;3.8;77.8;97960;;;;
2022/01/17 10:58:29;;;;;;;6.3;8.3;;;;;;;3.8;78.6;98000;;;;
2022/01/17 11:08:29;;;;;;;6.3;8.3;;;;;;;3.6;79.5;97990;;;;
2022/01/17 11:20:34;;;;;;;5.8;8.7;;;;;;;3.5;80.7;97990;;;;
2022/01/17 11:29:29;;;;;;;5.8;8.7;;;;;;;3.3;81.8;97970;;;;
2022/01/17 11:39:29;;;;;;;5.8;8.7;;;;;;;3.3;82;97930;;;;
2022/01/17 11:50:30;;;;;;;6.8;9.7;;;;;;;3.3;81.9;97930;;;;
2022/01/17 12:01:29;;;;;;;6.8;9.7;;;;;;;3.2;81.8;97950;;;;
2022/01/17 12:11:29;;;;;;;6.8;9.7;;;;;;;3.2;82.2;97940;;;;
2022/01/17 12:22:29;;;;;;;5.7;11.4;;;;;;;3.1;82.6;97930;;;;
2022/01/17 12:32:34;;;;;;;5.7;11.4;;;;;;;3.1;82.6;97990;;;;
2022/01/17 12:43:30;;;;;;;5.7;11.4;;;;;;;1.4;83.2;98250;;;;
2022/01/17 12:54:29;;;;;;;4.5;7.1;;;;;;;1;84.2;98250;;;;
2022/01/17 13:04:30;;;;;;;4.5;7.1;;;;;;;0.9;84.1;98300;;;;
2022/01/17 13:15:29;;;;;;;1.6;3.3;;;;;;;0.9;83.7;98280;;;;
2022/01/17 13:25:29;;;;;;;1.6;3.3;;;;;;;0.8;82.5;98290;;;;
2022/01/17 13:36:29;;;;;;;1.6;3.3;;;;;;;0.8;82.5;98340;;;;
2022/01/17 13:46:29;;;;;;;3.6;6.5;;;;;;;0.9;82;98350;;;;
2022/01/17 13:56:29;;;;;;;3.6;6.5;;;;;;;0.6;80.9;98350;;;;
2022/01/17 14:07:29;;;;;;;3.6;6.5;;;;;;;0.3;79.9;98430;;;;
2022/01/17 14:17:29;;;;;;;7.4;13.4;;;;;;;0.2;78.7;98430;;;;
2022/01/17 14:28:29;;;;;;;7.4;13.4;;;;;;;0;79;98460;;;;
2022/01/17 14:38:29;;;;;;;7.4;13.4;;;;;;;-0.2;79.6;98510;;;;
2022/01/17 14:48:29;;;;;;;7.7;11.3;;;;;;;-0.3;80.4;98550;;;;
2022/01/17 14:59:41;;;;;;;7.7;11.3;;;;;;;-0.4;80.6;98580;;;;
2022/01/17 15:09:29;;;;;;;7.7;11.3;;;;;;;-0.4;80.9;98620;;;;
2022/01/17 15:19:29;;;;;;;10.4;16.1;;;;;;;-0.5;81.4;98640;;;;
2022/01/17 15:29:33;;;;;;;10.4;16.1;;;;;;;-0.6;81.6;98660;;;;
2022/01/17 15:39:29;;;;;;;10.4;16.1;;;;;;;-0.5;81.2;98690;;;;
2022/01/17 15:50:29;;;;;;;11.1;14.8;;;;;;;-0.3;81.8;98690;;;;
2022/01/17 16:00:31;;;;;;;11.1;14.8;;;;;;;-0.1;81.7;98690;;;;
2022/01/17 16:10:29;;;;;;;11.1;14.8;;;;;;;0;81.3;98710;;;;
2022/01/17 16:21:29;;;;;;;13.9;17.3;;;;;;;-0.3;81;98710;;;;
2022/01/17 16:32:29;;;;;;;13.9;17.3;;;;;;;-0.2;81.5;98730;;;;
2022/01/17 16:42:34;;;;;;;13.9;17.3;;;;;;;-0.2;81.5;98770;;;;
2022/01/17 16:52:29;;;;;;;15.9;20.5;;;;;;;-0.4;81.6;98790;;;;
2022/01/17 17:02:29;;;;;;;15.9;20.5;;;;;;;-0.4;82.1;98820;;;;
2022/01/17 17:13:29;;;;;;;15.9;20.5;;;;;;;-0.2;82.7;98850;;;;
2022/01/17 17:24:29;;;;;;;18.4;25.7;;;;;;;0.1;82.6;98900;;;;
2022/01/17 17:34:29;;;;;;;18.4;25.7;;;;;;;0.1;84.4;98930;;;;
2022/01/17 17:45:31;;;;;;;15;20.1;;;;;;;0.1;85.3;98970;;;;
2022/01/17 17:56:29;;;;;;;15;20.1;;;;;;;0;85;98990;;;;
2022/01/17 18:06:29;;;;;;;15;20.1;;;;;;;-0.2;83.9;99020;;;;
2022/01/17 18:16:29;;;;;;;15.1;19.1;;;;;;;-0.2;82.5;99050;;;;
2022/01/17 18:27:29;;;;;;;15.1;19.1;;;;;;;-0.1;82.2;99080;;;;
2022/01/17 18:38:29;;;;;;;15.1;19.1;;;;;;;-0.2;80.9;99110;;;;
2022/01/17 18:48:29;;;;;;;14.2;18.2;;;;;;;-0.3;80.4;99120;;;;
2022/01/17 18:58:29;;;;;;;14.2;18.2;;;;;;;-0.3;80.4;99150;;;;
2022/01/17 19:09:29;;;;;;;14.2;18.2;;;;;;;-0.4;80.2;99150;;;;
2022/01/17 19:20:52;;;;;;;15.8;19.8;;;;;;;-0.4;79.3;99170;;;;
2022/01/17 19:31:29;;;;;;;15.8;19.8;;;;;;;-0.6;79.4;99190;;;;
2022/01/17 19:41:30;;;;;;;15.8;19.8;;;;;;;-0.6;79.1;99220;;;;
2022/01/17 19:52:29;;;;;;;17.4;24.4;;;;;;;-0.8;79.2;99240;;;;
2022/01/17 20:02:29;;;;;;;17.4;24.4;;;;;;;-0.8;79.3;99260;;;;
2022/01/17 20:13:29;;;;;;;17.4;24.4;;;;;;;-0.8;79.4;99290;;;;
2022/01/17 20:23:29;;;;;;;18.1;22.5;;;;;;;-0.9;79.5;99320;;;;
2022/01/17 20:33:29;;;;;;;18.1;22.5;;;;;;;-1;79.7;99360;;;;
2022/01/17 20:44:29;;;;;;;22.2;36.2;;;;;;;-1;79.6;99390;;;;
2022/01/17 20:55:29;;;;;;;22.2;36.2;;;;;;;-1;79.8;99430;;;;
2022/01/17 21:05:29;;;;;;;22.2;36.2;;;;;;;-1;79.4;99440;;;;
2022/01/17 21:16:29;;;;;;;19;30.1;;;;;;;-1;79.2;99450;;;;
2022/01/17 21:27:29;;;;;;;19;30.1;;;;;;;-1;79.2;99450;;;;
2022/01/17 21:37:29;;;;;;;19;30.1;;;;;;;-1;79.3;99480;;;;
2022/01/17 21:48:29;;;;;;;20;26.5;;;;;;;-1.1;79.5;99490;;;;
2022/01/17 21:58:29;;;;;;;20;26.5;;;;;;;-1.1;79.8;99500;;;;
2022/01/17 22:08:29;;;;;;;20;26.5;;;;;;;-1.1;79.5;99520;;;;
2022/01/17 22:18:29;;;;;;;19.7;28.1;;;;;;;-1.1;79.4;99540;;;;
2022/01/17 22:28:30;;;;;;;19.7;28.1;;;;;;;-1.1;79.1;99560;;;;
2022/01/17 22:39:30;;;;;;;19.7;28.1;;;;;;;-1.1;78.6;99580;;;;
2022/01/17 22:49:30;;;;;;;22.9;36.8;;;;;;;-1.1;78.6;99590;;;;
2022/01/17 23:00:30;;;;;;;22.9;36.8;;;;;;;-1.2;79.3;99620;;;;
2022/01/17 23:10:30;;;;;;;22.9;36.8;;;;;;;-0.9;79.4;99620;;;;
2022/01/17 23:21:30;;;;;;;21.7;34.5;;;;;;;-0.8;79.2;99640;;;;
2022/01/17 23:42:30;;;;;;;21.7;34.5;;;;;;;-0.6;79.3;99670;;;;
2022/01/17 23:52:30;;;;;;;21.4;38.1;;;;;;;-0.6;79.1;99680;;;;
